默认 日期 大小 文件数 浏览量 最新下载 xml
staples磁力链接相关资源由用户搜索指令自动获取,结果来源于网络,本站不存储任何资料,亦不承担任何责任,请于24小时内删除,搜索到411个磁力,用时0ms。
    {"Screens": {"screen0001.png": 256794, "screen0002.png": 246696, "screen0003.png": 277359}, "The.Vince.Staples.Show.S01E01.XviD-AFG.avi": 237874498, "The.Vince.Staples.Show.S01E01.XviD-AFG.nfo": 1106, "Torrent Downloaded From www.SceneTime.com .txt": 85}
创建时间: 2025-07-09 19:22:41 大小:227.6 MB 文件数量:6 热度:1 最近下载:2025-07-10 21:46:02
    ... -09-06t19.flac": 78002492, "Mavis Staples 2025-09-06 Lone Tree ... - 24 BIT.md5": 1254, "Mavis Staples 2025-09-06 Lone Tree ...
创建时间: 2025-10-05 16:59:16 大小:713.66 MB 文件数量:23 热度:1 最近下载:2025-10-10 13:07:02
    {"Links.txt": 271, "Preview Video.mp4": 227432058}
创建时间: 2025-10-07 19:46:15 大小:216.9 MB 文件数量:2 热度:1 最近下载:2025-10-12 11:33:01
    {"Links.txt": 271, "Preview Video.mp4": 227432058}
创建时间: 2025-10-08 08:58:56 大小:216.9 MB 文件数量:2 热度:0
    {"Poster.jpg": 58686, "Jolly Roger.png": 131827, "Motley Crue - The End: Staples Center, Los Angeles, CA. 2015 [Full Concert 1080p].mp4": 4164328359}
创建时间: 2025-11-06 12:51:26 大小:3.88 GB 文件数量:3 热度:0
    ... .org .txt": 129, "The.Vince.Staples.Show.S02E01.1080p.WEB.h264 ... -EDITH.mkv": 1851926940, "the.vince.staples.show.s02e01.1080p.web.h264 ...
创建时间: 2025-11-06 18:45:13 大小:1.74 GB 文件数量:7 热度:0
    ... K83.mkv": 612609344, "The.Vince.Staples.Show.S02E02.MULTi.720p.NF ... K83.mkv": 432363048, "The.Vince.Staples.Show.S02E03.MULTi.720p.NF ... .mkv": 480610843, "The.Vince.Staples.Show.S02E04.MULTi.720p.NF ... .mkv": 506845461, "The.Vince.Staples.Show.S02E05.MULTi.720p.NF ...
创建时间: 2025-11-07 09:17:40 大小:2.92 GB 文件数量:7 热度:0
    {"Importante Leeme!.vbs": 213, "Descargar Películas, Series y Animes...url": 50, "El.show.de.Vince.Staples.S02E02.2025.WEB-DL.1080p-Dual-Lat.mkv": 1056339096}
创建时间: 2025-11-07 09:21:15 大小:1007.4 MB 文件数量:3 热度:0
    ... .org .txt": 129, "The.Vince.Staples.Show.S02E05.720p.HEVC.x265 ... -MeGusta.mkv": 184759780, "The.Vince.Staples.Show.S02E05.720p.HEVC.x265 ...
创建时间: 2025-11-07 11:53:43 大小:188.8 MB 文件数量:6 热度:0
    {"Importante Leeme!.vbs": 213, "Descargar Películas, Series y Animes...url": 50, "El.show.de.Vince.Staples.S02E01.2025.WEB-DL.1080p-Dual-Lat.mkv": 1256028129}
创建时间: 2025-11-07 12:51:46 大小:1.17 GB 文件数量:3 热度:0
    ... .org .txt": 129, "The.Vince.Staples.Show.S02E03.720p.HEVC.x265 ... -MeGusta.mkv": 181939222, "The.Vince.Staples.Show.S02E03.720p.HEVC.x265 ...
创建时间: 2025-11-07 13:14:49 大小:183.46 MB 文件数量:6 热度:0
    ... .org .txt": 129, "The.Vince.Staples.Show.S02E05.1080p.WEB.h264 ... -EDITH.mkv": 1441468855, "the.vince.staples.show.s02e05.1080p.web.h264 ...
创建时间: 2025-11-07 15:04:29 大小:1.35 GB 文件数量:7 热度:0
    ... .mkv": 1986618240, "The.Vince.Staples.Show.S02E02.MULTi.1080p.NF ... .mkv": 1322236929, "The.Vince.Staples.Show.S02E03.MULTi.1080p.NF ... .mkv": 1442403532, "The.Vince.Staples.Show.S02E04.MULTi.1080p.NF ... .mkv": 1574086594, "The.Vince.Staples.Show.S02E05.MULTi.1080p.NF ...
创建时间: 2025-11-08 08:41:43 大小:8.62 GB 文件数量:8 热度:0
    {"cover.jpg": 257792, "12. The Weight.flac": 73342510, "03. Farther Along.flac": 43375742, "08. When I Go Away.flac": 64736679, "10. You Got To Move.flac": 31344167, "06. Move Along Train.flac": 40273737, "01. This Is My Country.flac": 55719057, "02. ...
创建时间: 2025-11-08 09:18:40 大小:619.79 MB 文件数量:13 热度:0
    {"Mavis Staples - Sad and Beautiful World R& ...
创建时间: 2025-11-08 10:20:24 大小:87.89 MB 文件数量:11 热度:0
    {"Importante Leeme!.vbs": 213, "Descargar Películas, Series y Animes...url": 50, "El.show.de.Vince.Staples.S02E03.2025.WEB-DL.1080p-Dual-Lat.mkv": 1038117818}
创建时间: 2025-11-08 12:55:41 大小:990.03 MB 文件数量:3 热度:0
    {"cover.jpg": 499989, "08 - Anthem.mp3": 7571051, "01 - Chicago.mp3": 6510554, "06 - Godspeed.mp3": 6987009, "04 - Human Mind.mp3": 7896133, "05 - Hard Times.mp3": 11612855, "09 - Satisfied Mind.mp3": 9284754, "02 - Beautiful Strangers.mp3": 14532184, "07 ...
创建时间: 2025-11-08 13:51:13 大小:90.04 MB 文件数量:11 热度:0
    ... .org .txt": 129, "The.Vince.Staples.Show.S02E04.720p.HEVC.x265 ... -MeGusta.mkv": 177206897, "The.Vince.Staples.Show.S02E04.720p.HEVC.x265 ...
创建时间: 2025-11-08 14:15:56 大小:178.58 MB 文件数量:6 热度:0
    ... mkv": 586818335, "The.Vince.Staples.Show.S02E02.Petting.Zoo.1080p ... ": 570766056, "The.Vince.Staples.Show.S02E04.Anti-Social.1080p ... ": 667152110, "The.Vince.Staples.Show.S02E05.Mr_.Baldwin.1080p ... mkv": 691982907, "The.Vince.Staples.Show.S02E01.Country.Mane.1080p ...
创建时间: 2025-11-08 16:31:03 大小:3.84 GB 文件数量:6 热度:0
    ... ": 174871638, "The.Vince.Staples.Show.S01E02.FRENCH.WEBRip.x264 ... ": 158341662, "The.Vince.Staples.Show.S01E03.FRENCH.WEBRip.x264 ... ": 158802407, "The.Vince.Staples.Show.S01E04.FRENCH.WEBRip.x264 ... mp4": 168459386, "The.Vince.Staples.Show.S01E05.FiNAL.FRENCH.WEBRip ...
创建时间: 2025-11-09 09:25:57 大小:754.31 MB 文件数量:5 热度:0